Latest Weather Observations for Kempsey Airport

IDN60801

Issued at 9:35 pm EST Tuesday 30 September 2014 (issued every 30 minutes, with the page automatically refreshed every 10 minutes)

About weather observations | Map of weather stations | Latest weather observations for NSW | Other Formats
Station Details ID: 059007 Name: KEMPSEY AIRPORT AWS Lat: -31.07 Lon: 152.77 Height: 13.0 m
Data from the previous 72 hours. | See also: Recent months for locations in New South Wales
Date/Time
EST
Temp
°C
App
Temp
°C
Dew
Point
Rel
Hum
%
Delta-T
°C
Wind Press
QNH
hPa
Press
MSL
hPa
Rain
since 9 am
mm
Dir
 
Spd
km/h
Gust
km/h
Spd
kts
Gust
kts
30/09:30pm 17.2 18.0 14.7 85 1.4 SSW 4 11 2 6 1013.6 1013.6 0.0
30/09:00pm 18.1 17.9 15.7 86 1.4 ENE 11 13 6 7 1013.3 1013.3 0.0
30/08:30pm 17.4 18.0 15.2 87 1.3 N 6 9 3 5 1014.6 1014.6 0.0
30/08:00pm 17.2 18.8 14.8 86 1.4 CALM 0 0 0 0 1014.4 1014.4 0.0
30/07:30pm 17.0 17.2 14.3 84 1.5 ESE 6 7 3 4 1014.3 1014.3 0.0
30/07:00pm 17.3 17.2 13.8 80 2.0 SSW 7 9 4 5 1014.3 1014.3 0.0
30/06:30pm 19.5 21.2 15.2 76 2.5 CALM 0 0 0 0 1013.9 1013.9 0.0
30/06:00pm 20.6 20.7 15.4 72 3.1 E 9 15 5 8 1013.4 1013.4 0.0
30/05:30pm 22.1 21.6 15.0 64 4.2 E 11 15 6 8 1013.5 1013.5 0.0
30/05:00pm 24.3 23.9 15.2 57 5.5 E 11 17 6 9 1013.2 1013.2 0.0
30/04:30pm 25.2 23.9 15.8 56 5.7 E 17 20 9 11 1013.0 1013.0 0.0
30/04:00pm 26.4 25.2 15.1 49 6.8 ENE 15 20 8 11 1013.0 1013.0 0.0
30/03:30pm 26.6 24.8 15.6 50 6.7 NE 19 26 10 14 1012.8 1012.8 0.0
30/03:00pm 26.1 23.5 14.9 50 6.7 NE 22 30 12 16 1012.9 1012.9 0.0
30/02:30pm 28.2 26.2 15.5 46 7.8 NE 20 30 11 16 1013.1 1013.1 0.0
30/02:00pm 27.5 24.3 14.2 44 8.0 E 24 32 13 17 1013.3 1013.3 0.0
30/01:30pm 28.5 26.2 15.8 46 7.8 E 22 28 12 15 1013.5 1013.5 0.0
30/01:00pm 29.3 27.4 15.1 42 8.7 E 19 26 10 14 1013.7 1013.7 0.0
30/12:30pm 29.0 26.8 14.8 42 8.6 E 20 28 11 15 1014.1 1014.1 0.0
30/12:00pm 28.9 26.4 15.1 43 8.4 E 22 30 12 16 1014.4 1014.4 0.0
30/11:30am 31.3 29.4 10.6 28 11.9 ENE 11 19 6 10 1015.0 1015.0 0.0
30/11:00am 31.0 28.5 9.8 27 12.0 N 13 19 7 10 1015.5 1015.5 0.0
30/10:30am 30.0 26.9 9.0 27 11.7 N 15 24 8 13 1015.8 1015.8 0.0
30/10:00am 28.8 25.6 10.0 31 10.6 NNW 17 24 9 13 1016.6 1016.6 0.0
30/09:30am 27.4 24.5 9.7 33 9.8 NW 15 20 8 11 1017.1 1017.1 0.0
30/09:00am 25.8 24.6 11.6 41 8.1 NNW 9 15 5 8 1017.1 1017.1 0.0
30/08:30am 23.7 21.8 11.7 47 6.8 N 13 19 7 10 1017.3 1017.3 0.0
30/08:00am 22.0 21.2 12.8 56 5.2 N 9 13 5 7 1017.3 1017.3 0.0
30/07:55am 21.6 21.0 13.5 60 4.7 NNW 9 13 5 7 1017.4 1017.4 0.0
30/07:30am 16.6 17.7 13.5 82 1.7 CALM 0 0 0 0 1017.6 1017.6 0.0
30/07:00am 13.3 13.8 11.7 90 0.9 CALM 0 6 0 3 1017.5 1017.5 0.0
30/06:30am 10.8 10.8 9.9 94 0.5 CALM 0 0 0 0 1017.5 1017.5 0.0
30/06:00am 9.0 8.5 7.9 93 0.5 CALM 0 0 0 0 1017.2 1017.2 0.0
30/05:30am 9.1 7.9 8.0 93 0.5 WSW 4 7 2 4 1017.0 1017.0 0.0
30/05:00am 9.0 7.2 7.9 93 0.5 W 7 9 4 5 1016.7 1016.7 0.0
30/04:30am 9.2 8.4 8.1 93 0.5 WSW 2 7 1 4 1016.7 1016.7 0.0
30/04:00am 9.3 8.9 8.2 93 0.5 CALM 0 0 0 0 1016.4 1016.4 0.0
30/03:30am 9.1 8.6 7.7 91 0.7 CALM 0 0 0 0 1016.4 1016.4 0.0
30/03:00am 9.8 9.5 8.6 92 0.6 CALM 0 0 0 0 1016.4 1016.4 0.0
30/02:30am 9.6 9.1 8.0 90 0.8 WSW 0 0 0 0 1016.4 1016.4 0.0
30/02:00am 10.6 9.3 9.2 91 0.7 W 6 7 3 4 1016.6 1016.6 0.0
30/01:30am 11.4 10.3 9.8 90 0.8 W 6 7 3 4 1016.7 1016.7 0.0
30/01:00am 11.6 10.6 10.3 92 0.7 WSW 6 7 3 4 1016.9 1016.9 0.0
30/12:30am 11.6 10.7 10.5 93 0.6 WSW 6 9 3 5 1017.1 1017.1 0.0
30/12:00am 10.8 10.6 9.2 90 0.8 WSW 0 0 0 0 1017.2 1017.2 0.0
 
Date/Time
EST
Temp
°C
App
Temp
°C
Dew
Point
Rel
Hum
%
Delta-T
°C
Wind Press
QNH
hPa
Press
MSL
hPa
Rain
since 9 am
mm
Dir
 
Spd
km/h
Gust
km/h
Spd
kts
Gust
kts
29/11:30pm 11.9 12.1 10.6 92 0.7 CALM 0 0 0 0 1017.3 1017.3 0.0
29/11:00pm 11.8 12.0 10.4 91 0.7 CALM 0 0 0 0 1017.6 1017.6 0.0
29/10:30pm 12.0 12.0 9.9 87 1.1 CALM 0 0 0 0 1017.7 1017.7 0.0
29/10:00pm 13.5 12.7 11.7 89 1.0 NW 7 9 4 5 1017.6 1017.6 0.0
29/09:30pm 13.4 13.8 11.3 87 1.1 CALM 0 0 0 0 1017.7 1017.7 0.0
29/09:00pm 14.0 14.6 11.9 87 1.1 CALM 0 0 0 0 1017.8 1017.8 0.0
29/08:30pm 13.8 12.9 10.8 82 1.6 W 6 9 3 5 1017.7 1017.7 0.0
29/08:00pm 14.8 15.4 11.9 83 1.6 CALM 0 0 0 0 1017.5 1017.5 0.0
29/07:30pm 15.6 16.2 12.0 79 2.0 CALM 0 0 0 0 1017.3 1017.3 0.0
29/07:00pm 16.7 17.3 13.2 80 2.0 S 2 6 1 3 1016.8 1016.8 0.0
29/06:30pm 17.1 17.3 11.8 71 2.9 ESE 2 7 1 4 1016.3 1016.3 0.0
29/06:00pm 19.8 18.3 11.8 60 4.4 E 11 13 6 7 1015.9 1015.9 0.0
29/05:30pm 22.4 20.8 10.2 46 6.7 E 9 13 5 7 1015.6 1015.6 0.0
29/05:00pm 23.9 21.2 10.2 42 7.5 ENE 15 19 8 10 1015.2 1015.2 0.0
29/04:30pm 25.1 22.2 9.8 38 8.4 ENE 15 20 8 11 1015.0 1015.0 0.0
29/04:00pm 25.7 22.6 10.3 38 8.6 ENE 17 24 9 13 1014.7 1014.7 0.0
29/03:30pm 26.4 22.7 9.3 34 9.4 ENE 19 26 10 14 1014.6 1014.6 0.0
29/03:00pm 26.8 23.4 10.5 36 9.1 ENE 19 26 10 14 1014.4 1014.4 0.0
29/02:30pm 27.2 24.2 10.8 36 9.3 ENE 17 20 9 11 1014.4 1014.4 0.0
29/02:00pm 27.3 23.8 10.1 34 9.6 ENE 19 20 10 11 1014.6 1014.6 0.0
29/01:30pm 27.3 24.6 10.5 35 9.5 E 15 20 8 11 1015.0 1015.0 0.0
29/01:00pm 27.7 24.8 4.7 23 11.7 ESE 9 15 5 8 1015.2 1015.2 0.0
29/12:30pm 27.6 25.2 5.2 24 11.5 SW 7 13 4 7 1015.7 1015.7 0.0
29/12:00pm 28.2 25.4 6.9 26 11.3 N 11 17 6 9 1016.0 1016.0 0.0
29/11:30am 26.7 24.7 7.2 29 10.3 NNE 7 13 4 7 1016.4 1016.4 0.0
29/11:00am 25.9 23.4 6.5 29 10.1 NNE 9 13 5 7 1016.8 1016.8 0.0
29/10:30am 25.9 23.4 8.0 32 9.6 N 11 15 6 8 1017.3 1017.3 0.0
29/10:00am 24.5 23.0 10.4 41 7.8 NNW 9 17 5 9 1017.6 1017.6 0.0
29/09:30am 23.1 20.2 9.5 42 7.4 NNW 15 20 8 11 1018.1 1018.1 0.0
29/09:00am 21.6 19.0 9.5 46 6.5 NNW 13 20 7 11 1018.4 1018.4 0.0
29/08:30am 19.1 17.8 9.9 55 4.9 WNW 7 15 4 8 1018.6 1018.6 0.0
29/08:00am 16.9 16.0 10.7 67 3.3 NNW 6 9 3 5 1018.8 1018.8 0.0
29/07:30am 13.3 13.7 11.2 87 1.1 CALM 0 0 0 0 1018.9 1018.9 0.0
29/07:00am 11.3 11.5 10.4 94 0.5 CALM 0 0 0 0 1019.0 1019.0 0.0
29/06:30am 9.0 8.6 8.2 95 0.4 CALM 0 0 0 0 1018.9 1018.9 0.0
29/06:00am 6.4 5.4 5.5 94 0.4 CALM 0 0 0 0 1018.8 1018.8 0.0
29/05:30am 7.2 6.4 6.3 94 0.4 CALM 0 0 0 0 1018.4 1018.4 0.0
29/05:00am 7.4 5.4 6.3 93 0.5 WSW 6 9 3 5 1018.5 1018.5 0.0
29/04:30am 7.2 5.2 6.1 93 0.5 SW 6 7 3 4 1018.3 1018.3 0.0
29/04:00am 8.8 7.9 7.9 94 0.4 W 2 7 1 4 1018.3 1018.3 0.0
29/03:30am 7.6 6.8 6.5 93 0.5 CALM 0 0 0 0 1018.1 1018.1 0.0
29/03:00am 8.5 6.8 7.6 94 0.4 WSW 6 9 3 5 1018.2 1018.2 0.0
29/02:30am 8.2 6.2 7.3 94 0.4 W 7 9 4 5 1018.6 1018.6 0.0
29/02:00am 7.9 5.8 6.8 93 0.5 WSW 7 9 4 5 1019.0 1019.0 0.0
29/01:30am 7.9 5.8 6.8 93 0.5 WSW 7 9 4 5 1019.3 1019.3 0.0
29/01:00am 7.4 5.3 6.0 91 0.6 W 6 7 3 4 1019.4 1019.4 0.0
29/12:30am 8.8 7.9 7.7 93 0.5 SW 2 7 1 4 1019.5 1019.5 0.0
29/12:00am 8.9 7.6 7.8 93 0.5 W 4 7 2 4 1019.7 1019.7 0.0
 
Date/Time
EST
Temp
°C
App
Temp
°C
Dew
Point
Rel
Hum
%
Delta-T
°C
Wind Press
QNH
hPa
Press
MSL
hPa
Rain
since 9 am
mm
Dir
 
Spd
km/h
Gust
km/h
Spd
kts
Gust
kts
28/11:30pm 8.7 7.3 7.3 91 0.7 W 4 7 2 4 1019.9 1019.9 0.0
28/11:00pm 9.4 9.0 8.3 93 0.5 CALM 0 0 0 0 1020.0 1020.0 0.0
28/10:30pm 9.2 8.6 7.6 90 0.8 CALM 0 0 0 0 1020.1 1020.1 0.0
28/10:00pm 9.9 9.5 8.2 89 0.8 CALM 0 0 0 0 1020.3 1020.3 0.0
28/09:30pm 10.6 10.4 9.0 90 0.8 CALM 0 0 0 0 1020.6 1020.6 0.0
28/09:00pm 11.0 10.8 8.9 87 1.0 CALM 0 0 0 0 1020.7 1020.7 0.0
28/08:30pm 11.5 11.4 9.4 87 1.1 CALM 0 0 0 0 1020.7 1020.7 0.0
28/08:00pm 12.2 12.1 9.4 83 1.4 CALM 0 0 0 0 1020.6 1020.6 0.0
28/07:30pm 12.7 12.4 8.8 77 2.0 CALM 0 0 0 0 1020.3 1020.3 0.0
28/07:00pm 14.3 13.3 8.9 70 2.7 ENE 4 6 2 3 1020.0 1020.0 0.0
28/06:30pm 15.9 14.5 9.6 66 3.3 ENE 7 9 4 5 1019.8 1019.8 0.0
28/06:00pm 16.8 14.6 9.5 62 3.8 NE 11 15 6 8 1019.7 1019.7 0.0
28/05:30pm 18.4 15.6 10.0 58 4.5 ENE 15 22 8 12 1019.4 1019.4 0.0
28/05:00pm 19.2 16.0 9.9 55 4.9 ENE 17 24 9 13 1019.1 1019.1 0.0
28/04:30pm 20.0 16.6 9.0 49 5.8 ENE 17 28 9 15 1019.0 1019.0 0.0
28/04:00pm 20.5 16.9 10.0 51 5.6 ENE 19 30 10 16 1018.9 1018.9 0.0
28/03:30pm 21.1 17.3 9.7 48 6.1 E 20 28 11 15 1018.9 1018.9 0.0
28/03:00pm 21.9 18.2 9.4 45 6.7 ENE 19 26 10 14 1019.0 1019.0 0.0
28/02:30pm 22.1 18.2 9.3 44 6.9 E 20 26 11 14 1019.2 1019.2 0.0
28/02:00pm 22.0 18.6 9.2 44 6.8 E 17 26 9 14 1019.5 1019.5 0.0
28/01:30pm 22.4 20.4 8.5 41 7.4 E 9 20 5 11 1019.8 1019.8 0.0
28/01:00pm 23.0 21.0 8.7 40 7.6 ESE 9 20 5 11 1020.2 1020.2 0.0
28/12:30pm 23.1 20.0 7.2 36 8.3 E 13 20 7 11 1020.7 1020.7 0.0
28/12:00pm 22.7 20.1 6.0 34 8.4 E 9 15 5 8 1021.1 1021.1 0.0
28/11:30am 22.5 19.5 5.9 34 8.4 ESE 11 15 6 8 1021.5 1021.5 0.0
28/11:00am 21.9 19.4 4.5 32 8.5 ESE 7 13 4 7 1022.0 1022.0 0.0
28/10:30am 21.0 18.3 5.8 37 7.6 SSE 9 13 5 7 1022.2 1022.2 0.0
28/10:00am 20.9 19.2 8.5 45 6.5 E 7 11 4 6 1022.5 1022.5 0.0
28/09:30am 20.0 18.4 8.7 48 5.9 SW 7 11 4 6 1022.9 1022.9 0.0
28/09:00am 18.8 18.0 9.8 56 4.8 E 4 9 2 5 1023.2 1023.2 0.0
28/08:30am 16.9 16.7 10.3 65 3.5 NW 2 9 1 5 1023.3 1023.3 0.0
28/08:00am 15.0 14.0 10.2 73 2.5 W 6 9 3 5 1023.2 1023.2 0.0
28/07:30am 13.3 11.7 10.3 82 1.6 W 9 13 5 7 1022.8 1022.8 0.0
28/07:00am 11.6 9.9 9.7 88 1.0 WNW 9 13 5 7 1022.5 1022.5 0.0
28/06:30am 10.2 7.9 9.1 93 0.5 W 11 13 6 7 1022.4 1022.4 0.0
28/06:00am 8.3 6.3 7.2 93 0.5 WSW 7 9 4 5 1022.2 1022.2 0.0
28/05:30am 8.2 6.2 7.1 93 0.5 SW 7 11 4 6 1022.1 1022.1 0.0
28/05:00am 8.6 6.9 7.5 93 0.5 SW 6 9 3 5 1021.8 1021.8 0.0
28/04:30am 8.6 6.7 7.5 93 0.5 W 7 9 4 5 1021.5 1021.5 0.0
28/04:00am 8.1 5.7 6.9 92 0.6 WSW 9 9 5 5 1021.4 1021.4 0.0
28/03:30am 8.4 6.6 7.0 91 0.7 W 6 9 3 5 1021.4 1021.4 0.0
28/03:00am 8.7 7.4 7.5 92 0.6 WSW 4 9 2 5 1021.7 1021.7 0.0
28/02:30am 8.8 6.9 7.6 92 0.6 WSW 7 9 4 5 1021.5 1021.5 0.0
28/02:00am 8.7 8.1 7.2 90 0.7 CALM 0 0 0 0 1021.6 1021.6 0.0
28/01:30am 9.8 8.3 8.6 92 0.6 W 6 7 3 4 1022.2 1022.2 0.0
28/01:00am 9.1 6.4 7.5 90 0.8 W 11 13 6 7 1022.3 1022.3 0.0
28/12:30am 9.9 7.7 8.0 88 0.9 W 9 11 5 6 1022.3 1022.3 0.0
28/12:00am 10.6 10.4 8.9 89 0.8 CALM 0 0 0 0 1022.5 1022.5 0.0
 
Date/Time
EST
Temp
°C
App
Temp
°C
Dew
Point
Rel
Hum
%
Delta-T
°C
Wind Press
QNH
hPa
Press
MSL
hPa
Rain
since 9 am
mm
Dir
 
Spd
km/h
Gust
km/h
Spd
kts
Gust
kts
27/11:30pm 11.3 9.9 9.6 89 0.9 W 7 9 4 5 1022.7 1022.7 0.0
27/11:00pm 11.4 10.4 8.8 84 1.3 WNW 4 6 2 3 1022.8 1022.8 0.0
27/10:30pm 12.4 10.6 9.4 82 1.5 W 9 11 5 6 1022.7 1022.7 0.0
27/10:00pm 13.2 11.1 9.8 80 1.7 W 11 13 6 7 1022.5 1022.5 0.0

Other Formats:

Comma delimited format used in spreadsheet applications
http://www.bom.gov.au/fwo/IDN60801/IDN60801.94785.axf

JavaScript Object Notation format (JSON) in row-major order
http://www.bom.gov.au/fwo/IDN60801/IDN60801.94785.json